sensor_id;sensor_type;location;lat;lon;timestamp;P1;P2;P0
47709;PMS7003;33473;51.640;5.892;2023-07-16T00:06:24;1.92;4.37;3.06
47709;PMS7003;33473;51.640;5.892;2023-07-16T00:19:45;1.32;3.93;2.95
47709;PMS7003;33473;51.640;5.892;2023-07-16T00:33:05;1.2;4.26;3.17
47709;PMS7003;33473;51.640;5.892;2023-07-16T00:46:24;1.32;4.37;3.28
47709;PMS7003;33473;51.640;5.892;2023-07-16T00:59:44;1.08;4.26;3.17
47709;PMS7003;33473;51.640;5.892;2023-07-16T01:13:04;1.32;4.26;3.28
47709;PMS7003;33473;51.640;5.892;2023-07-16T01:26:25;1.44;4.48;3.71
47709;PMS7003;33473;51.640;5.892;2023-07-16T01:39:45;2.64;4.8;3.61
47709;PMS7003;33473;51.640;5.892;2023-07-16T01:53:04;1.32;4.48;3.5
47709;PMS7003;33473;51.640;5.892;2023-07-16T02:06:26;1.68;4.59;3.71
47709;PMS7003;33473;51.640;5.892;2023-07-16T02:19:47;3.24;5.13;4.04
47709;PMS7003;33473;51.640;5.892;2023-07-16T02:33:08;2.16;5.02;3.82
47709;PMS7003;33473;51.640;5.892;2023-07-16T02:59:51;2.4;5.35;3.93
47709;PMS7003;33473;51.640;5.892;2023-07-16T03:13:10;3.0;4.91;3.93
47709;PMS7003;33473;51.640;5.892;2023-07-16T03:26:32;2.4;5.13;4.15
47709;PMS7003;33473;51.640;5.892;2023-07-16T03:39:53;1.92;4.37;3.28
47709;PMS7003;33473;51.640;5.892;2023-07-16T03:53:14;1.2;4.37;3.17
47709;PMS7003;33473;51.640;5.892;2023-07-16T04:06:34;1.68;3.93;2.84
47709;PMS7003;33473;51.640;5.892;2023-07-16T04:19:53;1.68;3.93;2.95
47709;PMS7003;33473;51.640;5.892;2023-07-16T04:33:15;1.68;4.04;2.95
47709;PMS7003;33473;51.640;5.892;2023-07-16T04:46:34;1.44;4.48;3.17
47709;PMS7003;33473;51.640;5.892;2023-07-16T04:59:56;2.64;5.13;3.28
47709;PMS7003;33473;51.640;5.892;2023-07-16T05:13:15;3.48;5.9;4.15
47709;PMS7003;33473;51.640;5.892;2023-07-16T05:26:36;6.49;5.9;4.04
47709;PMS7003;33473;51.640;5.892;2023-07-16T05:39:58;4.21;5.9;4.04
47709;PMS7003;33473;51.640;5.892;2023-07-16T05:53:17;6.25;6.44;4.26
47709;PMS7003;33473;51.640;5.892;2023-07-16T06:06:37;5.17;6.22;4.26
47709;PMS7003;33473;51.640;5.892;2023-07-16T06:19:57;5.29;7.09;4.59
47709;PMS7003;33473;51.640;5.892;2023-07-16T06:33:16;5.77;7.09;4.7
47709;PMS7003;33473;51.640;5.892;2023-07-16T06:46:36;5.65;6.88;4.7
47709;PMS7003;33473;51.640;5.892;2023-07-16T06:59:57;5.77;6.66;4.7
47709;PMS7003;33473;51.640;5.892;2023-07-16T07:13:18;6.97;6.88;4.48
47709;PMS7003;33473;51.640;5.892;2023-07-16T07:26:40;6.97;7.09;4.59
47709;PMS7003;33473;51.640;5.892;2023-07-16T07:40:01;4.69;7.2;4.91
47709;PMS7003;33473;51.640;5.892;2023-07-16T07:53:21;4.21;6.66;4.7
47709;PMS7003;33473;51.640;5.892;2023-07-16T08:06:42;3.85;5.9;4.37
47709;PMS7003;33473;51.640;5.892;2023-07-16T08:20:03;3.12;6.0;4.37
47709;PMS7003;33473;51.640;5.892;2023-07-16T08:33:24;5.77;6.55;4.59
47709;PMS7003;33473;51.640;5.892;2023-07-16T08:46:44;4.33;6.44;4.48
47709;PMS7003;33473;51.640;5.892;2023-07-16T09:13:25;3.48;5.57;3.93
47709;PMS7003;33473;51.640;5.892;2023-07-16T09:26:46;2.88;5.02;3.5
47709;PMS7003;33473;51.640;5.892;2023-07-16T09:40:07;2.52;5.02;3.28
47709;PMS7003;33473;51.640;5.892;2023-07-16T09:53:28;2.04;4.26;3.17
47709;PMS7003;33473;51.640;5.892;2023-07-16T10:06:49;2.28;4.8;3.17
47709;PMS7003;33473;51.640;5.892;2023-07-16T10:20:09;2.64;4.37;3.06
47709;PMS7003;33473;51.640;5.892;2023-07-16T10:33:30;1.44;4.26;3.17
47709;PMS7003;33473;51.640;5.892;2023-07-16T10:46:52;2.64;3.82;2.95
47709;PMS7003;33473;51.640;5.892;2023-07-16T11:00:13;1.68;4.26;3.06
47709;PMS7003;33473;51.640;5.892;2023-07-16T11:13:34;0.48;3.71;2.84
47709;PMS7003;33473;51.640;5.892;2023-07-16T11:26:54;2.16;4.04;3.06
47709;PMS7003;33473;51.640;5.892;2023-07-16T11:40:13;2.4;4.48;3.17
47709;PMS7003;33473;51.640;5.892;2023-07-16T11:53:35;1.92;4.48;3.06
47709;PMS7003;33473;51.640;5.892;2023-07-16T12:06:54;0.96;3.93;2.95
47709;PMS7003;33473;51.640;5.892;2023-07-16T12:20:14;1.68;4.15;2.95
47709;PMS7003;33473;51.640;5.892;2023-07-16T12:33:35;0.96;4.15;2.95
47709;PMS7003;33473;51.640;5.892;2023-07-16T12:46:56;2.64;4.48;3.17
47709;PMS7003;33473;51.640;5.892;2023-07-16T13:00:16;3.48;4.48;3.06
47709;PMS7003;33473;51.640;5.892;2023-07-16T13:13:36;1.8;3.93;2.73
47709;PMS7003;33473;51.640;5.892;2023-07-16T13:26:57;1.8;4.37;3.39
47709;PMS7003;33473;51.640;5.892;2023-07-16T13:40:16;1.8;4.8;3.28
47709;PMS7003;33473;51.640;5.892;2023-07-16T13:53:36;0.96;4.15;2.95
47709;PMS7003;33473;51.640;5.892;2023-07-16T14:06:56;1.56;4.37;2.95
47709;PMS7003;33473;51.640;5.892;2023-07-16T14:20:17;0.48;3.61;2.52
47709;PMS7003;33473;51.640;5.892;2023-07-16T14:33:37;0.36;3.61;2.73
47709;PMS7003;33473;51.640;5.892;2023-07-16T14:46:58;0.6;3.82;2.84
47709;PMS7003;33473;51.640;5.892;2023-07-16T15:00:17;0.6;3.5;2.52
47709;PMS7003;33473;51.640;5.892;2023-07-16T15:13:39;1.44;3.61;2.62
47709;PMS7003;33473;51.640;5.892;2023-07-16T15:27:00;0.84;3.71;2.52
47709;PMS7003;33473;51.640;5.892;2023-07-16T15:40:19;0.12;3.28;2.52
47709;PMS7003;33473;51.640;5.892;2023-07-16T15:53:39;1.2;3.39;2.41
47709;PMS7003;33473;51.640;5.892;2023-07-16T16:07:00;0.96;3.61;2.62
47709;PMS7003;33473;51.640;5.892;2023-07-16T16:20:20;0.84;3.82;2.73
47709;PMS7003;33473;51.640;5.892;2023-07-16T16:33:40;1.08;3.5;2.73
47709;PMS7003;33473;51.640;5.892;2023-07-16T16:47:01;0.01;3.17;2.19
47709;PMS7003;33473;51.640;5.892;2023-07-16T17:00:22;0.36;2.95;2.19
47709;PMS7003;33473;51.640;5.892;2023-07-16T17:13:43;0.36;3.17;2.3
47709;PMS7003;33473;51.640;5.892;2023-07-16T17:27:04;0.48;3.06;2.08
47709;PMS7003;33473;51.640;5.892;2023-07-16T17:40:26;0.01;2.73;1.97
47709;PMS7003;33473;51.640;5.892;2023-07-16T17:53:47;0.84;3.17;2.41
47709;PMS7003;33473;51.640;5.892;2023-07-16T18:07:08;0.0;3.28;2.08
47709;PMS7003;33473;51.640;5.892;2023-07-16T18:20:28;0.01;3.06;2.19
47709;PMS7003;33473;51.640;5.892;2023-07-16T18:33:47;0.84;3.06;2.08
47709;PMS7003;33473;51.640;5.892;2023-07-16T18:47:07;0.48;3.5;2.41
47709;PMS7003;33473;51.640;5.892;2023-07-16T19:00:28;1.56;3.71;2.73
47709;PMS7003;33473;51.640;5.892;2023-07-16T19:13:48;1.2;3.82;2.62
47709;PMS7003;33473;51.640;5.892;2023-07-16T19:27:09;0.84;3.93;2.52
47709;PMS7003;33473;51.640;5.892;2023-07-16T19:40:29;0.84;3.82;2.41
47709;PMS7003;33473;51.640;5.892;2023-07-16T19:53:50;0.36;3.28;2.41
47709;PMS7003;33473;51.640;5.892;2023-07-16T20:07:11;0.6;3.5;2.52
47709;PMS7003;33473;51.640;5.892;2023-07-16T20:20:31;0.36;3.61;2.62
47709;PMS7003;33473;51.640;5.892;2023-07-16T20:33:51;0.12;3.28;2.41
47709;PMS7003;33473;51.640;5.892;2023-07-16T20:47:10;0.48;3.71;2.73
47709;PMS7003;33473;51.640;5.892;2023-07-16T21:00:31;0.84;4.04;2.73
47709;PMS7003;33473;51.640;5.892;2023-07-16T21:13:53;2.04;4.37;3.06
47709;PMS7003;33473;51.640;5.892;2023-07-16T21:27:14;2.52;4.26;2.95
47709;PMS7003;33473;51.640;5.892;2023-07-16T21:40:35;1.44;4.26;2.84
47709;PMS7003;33473;51.640;5.892;2023-07-16T21:53:55;1.08;3.71;2.84
47709;PMS7003;33473;51.640;5.892;2023-07-16T22:07:14;1.8;4.7;3.28
47709;PMS7003;33473;51.640;5.892;2023-07-16T22:20:35;2.4;4.91;3.28
47709;PMS7003;33473;51.640;5.892;2023-07-16T22:33:57;3.48;4.91;3.17
47709;PMS7003;33473;51.640;5.892;2023-07-16T22:47:18;2.64;5.35;3.61
47709;PMS7003;33473;51.640;5.892;2023-07-16T23:00:38;3.36;5.46;3.5
47709;PMS7003;33473;51.640;5.892;2023-07-16T23:13:57;2.52;5.02;3.39
47709;PMS7003;33473;51.640;5.892;2023-07-16T23:27:18;1.68;4.59;2.95
47709;PMS7003;33473;51.640;5.892;2023-07-16T23:40:40;2.28;5.13;3.5
47709;PMS7003;33473;51.640;5.892;2023-07-16T23:54:01;3.6;5.46;3.71
